sensor_id;sensor_type;location;lat;lon;timestamp;P1;durP1;ratioP1;P2;durP2;ratioP2
26600;SDS011;14241;49.260;10.496;2023-04-10T00:00:18;16.70;;;13.18;;
26600;SDS011;14241;49.260;10.496;2023-04-10T00:02:43;14.98;;;12.90;;
26600;SDS011;14241;49.260;10.496;2023-04-10T00:05:08;16.05;;;12.88;;
26600;SDS011;14241;49.260;10.496;2023-04-10T00:07:34;15.75;;;13.35;;
26600;SDS011;14241;49.260;10.496;2023-04-10T00:09:59;15.80;;;12.65;;
26600;SDS011;14241;49.260;10.496;2023-04-10T00:12:25;15.63;;;13.38;;
26600;SDS011;14241;49.260;10.496;2023-04-10T00:14:50;16.95;;;13.43;;
26600;SDS011;14241;49.260;10.496;2023-04-10T00:17:15;14.40;;;12.40;;
26600;SDS011;14241;49.260;10.496;2023-04-10T00:19:40;16.15;;;13.35;;
26600;SDS011;14241;49.260;10.496;2023-04-10T00:22:06;18.90;;;13.03;;
26600;SDS011;14241;49.260;10.496;2023-04-10T00:24:31;14.38;;;12.77;;
26600;SDS011;14241;49.260;10.496;2023-04-10T00:26:56;15.67;;;13.50;;
26600;SDS011;14241;49.260;10.496;2023-04-10T00:29:23;15.70;;;13.30;;
26600;SDS011;14241;49.260;10.496;2023-04-10T00:31:48;18.13;;;13.88;;
26600;SDS011;14241;49.260;10.496;2023-04-10T00:34:14;16.40;;;14.00;;
26600;SDS011;14241;49.260;10.496;2023-04-10T00:36:39;18.98;;;15.95;;
26600;SDS011;14241;49.260;10.496;2023-04-10T00:39:05;20.60;;;16.70;;
26600;SDS011;14241;49.260;10.496;2023-04-10T00:41:31;28.83;;;19.15;;
26600;SDS011;14241;49.260;10.496;2023-04-10T00:43:56;26.42;;;17.95;;
26600;SDS011;14241;49.260;10.496;2023-04-10T00:46:22;22.08;;;15.95;;
26600;SDS011;14241;49.260;10.496;2023-04-10T00:48:48;20.33;;;15.13;;
26600;SDS011;14241;49.260;10.496;2023-04-10T00:51:13;24.15;;;16.20;;
26600;SDS011;14241;49.260;10.496;2023-04-10T00:53:38;25.67;;;17.50;;
26600;SDS011;14241;49.260;10.496;2023-04-10T00:56:04;26.63;;;16.80;;
26600;SDS011;14241;49.260;10.496;2023-04-10T00:58:30;26.40;;;17.63;;
26600;SDS011;14241;49.260;10.496;2023-04-10T01:00:55;22.45;;;15.68;;
26600;SDS011;14241;49.260;10.496;2023-04-10T01:03:20;22.63;;;15.55;;
26600;SDS011;14241;49.260;10.496;2023-04-10T01:05:50;23.85;;;15.85;;
26600;SDS011;14241;49.260;10.496;2023-04-10T01:08:19;20.27;;;16.27;;
26600;SDS011;14241;49.260;10.496;2023-04-10T01:13:40;22.52;;;16.23;;
26600;SDS011;14241;49.260;10.496;2023-04-10T01:16:13;23.13;;;16.13;;
26600;SDS011;14241;49.260;10.496;2023-04-10T01:21:05;23.17;;;16.25;;
26600;SDS011;14241;49.260;10.496;2023-04-10T01:26:18;24.40;;;17.45;;
26600;SDS011;14241;49.260;10.496;2023-04-10T01:28:56;23.63;;;17.00;;
26600;SDS011;14241;49.260;10.496;2023-04-10T01:31:49;28.45;;;18.45;;
26600;SDS011;14241;49.260;10.496;2023-04-10T01:34:14;31.08;;;19.05;;
26600;SDS011;14241;49.260;10.496;2023-04-10T01:36:46;28.67;;;18.45;;
26600;SDS011;14241;49.260;10.496;2023-04-10T01:39:12;34.55;;;21.17;;
26600;SDS011;14241;49.260;10.496;2023-04-10T01:41:38;32.13;;;19.15;;
26600;SDS011;14241;49.260;10.496;2023-04-10T01:44:05;33.78;;;19.40;;
26600;SDS011;14241;49.260;10.496;2023-04-10T01:46:31;32.17;;;19.33;;
26600;SDS011;14241;49.260;10.496;2023-04-10T01:48:57;29.83;;;19.38;;
26600;SDS011;14241;49.260;10.496;2023-04-10T01:51:24;32.35;;;20.13;;
26600;SDS011;14241;49.260;10.496;2023-04-10T01:53:50;26.15;;;17.92;;
26600;SDS011;14241;49.260;10.496;2023-04-10T01:56:16;29.70;;;19.55;;
26600;SDS011;14241;49.260;10.496;2023-04-10T01:58:42;35.47;;;20.55;;
26600;SDS011;14241;49.260;10.496;2023-04-10T02:01:07;37.80;;;22.38;;
26600;SDS011;14241;49.260;10.496;2023-04-10T02:03:34;39.90;;;22.77;;
26600;SDS011;14241;49.260;10.496;2023-04-10T02:08:47;41.75;;;24.83;;
26600;SDS011;14241;49.260;10.496;2023-04-10T02:13:39;36.97;;;23.50;;
26600;SDS011;14241;49.260;10.496;2023-04-10T02:16:05;38.35;;;24.98;;
26600;SDS011;14241;49.260;10.496;2023-04-10T02:18:32;40.05;;;24.50;;
26600;SDS011;14241;49.260;10.496;2023-04-10T02:20:58;34.47;;;21.52;;
26600;SDS011;14241;49.260;10.496;2023-04-10T02:23:23;41.27;;;22.80;;
26600;SDS011;14241;49.260;10.496;2023-04-10T02:25:48;41.20;;;22.33;;
26600;SDS011;14241;49.260;10.496;2023-04-10T02:28:14;41.45;;;23.13;;
26600;SDS011;14241;49.260;10.496;2023-04-10T02:30:39;37.38;;;22.42;;
26600;SDS011;14241;49.260;10.496;2023-04-10T02:33:04;36.63;;;21.88;;
26600;SDS011;14241;49.260;10.496;2023-04-10T02:35:29;39.07;;;22.67;;
26600;SDS011;14241;49.260;10.496;2023-04-10T02:37:55;34.20;;;21.35;;
26600;SDS011;14241;49.260;10.496;2023-04-10T02:40:21;38.13;;;21.65;;
26600;SDS011;14241;49.260;10.496;2023-04-10T02:42:46;35.13;;;21.45;;
26600;SDS011;14241;49.260;10.496;2023-04-10T02:45:11;35.05;;;22.27;;
26600;SDS011;14241;49.260;10.496;2023-04-10T02:47:36;35.45;;;21.83;;
26600;SDS011;14241;49.260;10.496;2023-04-10T02:50:02;38.88;;;23.40;;
26600;SDS011;14241;49.260;10.496;2023-04-10T02:52:27;38.20;;;23.23;;
26600;SDS011;14241;49.260;10.496;2023-04-10T02:54:52;34.77;;;21.93;;
26600;SDS011;14241;49.260;10.496;2023-04-10T02:57:17;33.83;;;22.67;;
26600;SDS011;14241;49.260;10.496;2023-04-10T02:59:42;36.58;;;24.05;;
26600;SDS011;14241;49.260;10.496;2023-04-10T03:02:08;34.20;;;21.98;;
26600;SDS011;14241;49.260;10.496;2023-04-10T03:04:34;36.45;;;23.23;;
26600;SDS011;14241;49.260;10.496;2023-04-10T03:06:59;30.00;;;20.13;;
26600;SDS011;14241;49.260;10.496;2023-04-10T03:09:24;26.87;;;19.57;;
26600;SDS011;14241;49.260;10.496;2023-04-10T03:11:50;24.75;;;18.20;;
26600;SDS011;14241;49.260;10.496;2023-04-10T03:14:16;30.52;;;18.75;;
26600;SDS011;14241;49.260;10.496;2023-04-10T03:16:41;21.83;;;17.42;;
26600;SDS011;14241;49.260;10.496;2023-04-10T03:19:06;23.70;;;17.70;;
26600;SDS011;14241;49.260;10.496;2023-04-10T03:21:31;23.63;;;17.73;;
26600;SDS011;14241;49.260;10.496;2023-04-10T03:23:57;25.48;;;17.85;;
26600;SDS011;14241;49.260;10.496;2023-04-10T03:26:22;27.52;;;19.55;;
26600;SDS011;14241;49.260;10.496;2023-04-10T03:28:48;22.67;;;17.98;;
26600;SDS011;14241;49.260;10.496;2023-04-10T03:31:13;21.63;;;17.85;;
26600;SDS011;14241;49.260;10.496;2023-04-10T03:33:39;19.08;;;16.10;;
26600;SDS011;14241;49.260;10.496;2023-04-10T03:36:06;21.83;;;19.15;;
26600;SDS011;14241;49.260;10.496;2023-04-10T03:38:31;18.77;;;16.58;;
26600;SDS011;14241;49.260;10.496;2023-04-10T03:40:56;23.13;;;20.50;;
26600;SDS011;14241;49.260;10.496;2023-04-10T03:43:23;20.10;;;17.90;;
26600;SDS011;14241;49.260;10.496;2023-04-10T03:45:48;20.55;;;16.85;;
26600;SDS011;14241;49.260;10.496;2023-04-10T03:48:13;19.58;;;17.13;;
26600;SDS011;14241;49.260;10.496;2023-04-10T03:50:38;20.45;;;17.63;;
26600;SDS011;14241;49.260;10.496;2023-04-10T03:53:04;22.80;;;16.98;;
26600;SDS011;14241;49.260;10.496;2023-04-10T03:55:29;23.20;;;18.43;;
26600;SDS011;14241;49.260;10.496;2023-04-10T03:57:54;27.23;;;21.52;;
26600;SDS011;14241;49.260;10.496;2023-04-10T04:00:20;31.43;;;21.27;;
26600;SDS011;14241;49.260;10.496;2023-04-10T04:02:45;30.02;;;21.65;;
26600;SDS011;14241;49.260;10.496;2023-04-10T04:05:11;29.35;;;20.52;;
26600;SDS011;14241;49.260;10.496;2023-04-10T04:07:36;33.60;;;21.65;;
26600;SDS011;14241;49.260;10.496;2023-04-10T04:10:01;32.47;;;22.83;;
26600;SDS011;14241;49.260;10.496;2023-04-10T04:12:26;29.77;;;20.27;;
26600;SDS011;14241;49.260;10.496;2023-04-10T04:14:52;29.50;;;20.33;;
26600;SDS011;14241;49.260;10.496;2023-04-10T04:17:17;28.00;;;20.00;;
26600;SDS011;14241;49.260;10.496;2023-04-10T04:19:42;24.75;;;19.60;;
26600;SDS011;14241;49.260;10.496;2023-04-10T04:22:08;26.17;;;19.70;;
26600;SDS011;14241;49.260;10.496;2023-04-10T04:24:33;27.63;;;21.45;;
26600;SDS011;14241;49.260;10.496;2023-04-10T04:26:58;24.08;;;19.10;;
26600;SDS011;14241;49.260;10.496;2023-04-10T04:29:23;26.15;;;19.63;;
26600;SDS011;14241;49.260;10.496;2023-04-10T04:31:49;26.27;;;20.07;;
26600;SDS011;14241;49.260;10.496;2023-04-10T04:34:14;25.67;;;19.45;;
26600;SDS011;14241;49.260;10.496;2023-04-10T04:36:40;24.85;;;19.10;;
26600;SDS011;14241;49.260;10.496;2023-04-10T04:39:06;22.88;;;19.40;;
26600;SDS011;14241;49.260;10.496;2023-04-10T04:41:32;23.85;;;20.10;;
26600;SDS011;14241;49.260;10.496;2023-04-10T04:44:00;25.25;;;20.13;;
26600;SDS011;14241;49.260;10.496;2023-04-10T04:46:26;25.08;;;20.83;;
26600;SDS011;14241;49.260;10.496;2023-04-10T04:48:51;24.88;;;20.30;;
26600;SDS011;14241;49.260;10.496;2023-04-10T04:51:16;26.98;;;20.52;;
26600;SDS011;14241;49.260;10.496;2023-04-10T04:53:41;23.13;;;19.40;;
26600;SDS011;14241;49.260;10.496;2023-04-10T04:56:07;26.45;;;19.33;;
26600;SDS011;14241;49.260;10.496;2023-04-10T04:58:32;21.98;;;18.65;;
26600;SDS011;14241;49.260;10.496;2023-04-10T05:00:57;24.52;;;19.38;;
26600;SDS011;14241;49.260;10.496;2023-04-10T05:03:23;24.90;;;19.08;;
26600;SDS011;14241;49.260;10.496;2023-04-10T05:05:48;25.25;;;19.98;;
26600;SDS011;14241;49.260;10.496;2023-04-10T05:08:13;28.08;;;19.63;;
26600;SDS011;14241;49.260;10.496;2023-04-10T05:10:39;25.00;;;19.10;;
26600;SDS011;14241;49.260;10.496;2023-04-10T05:13:04;24.90;;;19.07;;
26600;SDS011;14241;49.260;10.496;2023-04-10T05:15:29;22.50;;;19.00;;
26600;SDS011;14241;49.260;10.496;2023-04-10T05:17:55;21.90;;;18.13;;
26600;SDS011;14241;49.260;10.496;2023-04-10T05:20:20;23.17;;;17.33;;
26600;SDS011;14241;49.260;10.496;2023-04-10T05:22:46;21.45;;;18.08;;
26600;SDS011;14241;49.260;10.496;2023-04-10T05:25:11;21.88;;;18.23;;
26600;SDS011;14241;49.260;10.496;2023-04-10T05:27:36;22.95;;;18.25;;
26600;SDS011;14241;49.260;10.496;2023-04-10T05:30:02;22.25;;;18.50;;
26600;SDS011;14241;49.260;10.496;2023-04-10T05:32:28;24.67;;;19.77;;
26600;SDS011;14241;49.260;10.496;2023-04-10T05:34:53;22.05;;;18.63;;
26600;SDS011;14241;49.260;10.496;2023-04-10T05:37:18;23.13;;;18.65;;
26600;SDS011;14241;49.260;10.496;2023-04-10T05:39:43;24.63;;;20.20;;
26600;SDS011;14241;49.260;10.496;2023-04-10T05:42:08;24.60;;;20.23;;
26600;SDS011;14241;49.260;10.496;2023-04-10T05:44:34;22.10;;;18.50;;
26600;SDS011;14241;49.260;10.496;2023-04-10T05:46:59;22.57;;;18.47;;
26600;SDS011;14241;49.260;10.496;2023-04-10T05:49:24;21.55;;;18.17;;
26600;SDS011;14241;49.260;10.496;2023-04-10T05:51:50;23.98;;;18.77;;
26600;SDS011;14241;49.260;10.496;2023-04-10T05:54:16;22.35;;;18.88;;
26600;SDS011;14241;49.260;10.496;2023-04-10T05:56:42;21.63;;;18.38;;
26600;SDS011;14241;49.260;10.496;2023-04-10T05:59:07;21.43;;;17.57;;
26600;SDS011;14241;49.260;10.496;2023-04-10T06:01:32;21.98;;;18.77;;
26600;SDS011;14241;49.260;10.496;2023-04-10T06:03:57;23.70;;;19.17;;
26600;SDS011;14241;49.260;10.496;2023-04-10T06:06:23;20.07;;;17.10;;
26600;SDS011;14241;49.260;10.496;2023-04-10T06:08:50;22.42;;;18.02;;
26600;SDS011;14241;49.260;10.496;2023-04-10T06:11:15;21.90;;;18.05;;
26600;SDS011;14241;49.260;10.496;2023-04-10T06:13:40;19.50;;;17.42;;
26600;SDS011;14241;49.260;10.496;2023-04-10T06:16:06;20.33;;;17.13;;
26600;SDS011;14241;49.260;10.496;2023-04-10T06:18:31;21.33;;;18.38;;
26600;SDS011;14241;49.260;10.496;2023-04-10T06:20:57;21.17;;;17.75;;
26600;SDS011;14241;49.260;10.496;2023-04-10T06:23:24;20.20;;;17.73;;
26600;SDS011;14241;49.260;10.496;2023-04-10T06:25:49;20.85;;;17.42;;
26600;SDS011;14241;49.260;10.496;2023-04-10T06:28:14;19.75;;;16.90;;
26600;SDS011;14241;49.260;10.496;2023-04-10T06:30:40;22.50;;;17.60;;
26600;SDS011;14241;49.260;10.496;2023-04-10T06:33:05;19.83;;;17.23;;
26600;SDS011;14241;49.260;10.496;2023-04-10T06:35:30;21.13;;;17.55;;
26600;SDS011;14241;49.260;10.496;2023-04-10T06:37:55;21.17;;;17.30;;
26600;SDS011;14241;49.260;10.496;2023-04-10T06:40:21;21.17;;;17.45;;
26600;SDS011;14241;49.260;10.496;2023-04-10T06:42:46;19.40;;;16.40;;
26600;SDS011;14241;49.260;10.496;2023-04-10T06:45:11;18.80;;;16.45;;
26600;SDS011;14241;49.260;10.496;2023-04-10T06:47:36;20.13;;;16.10;;
26600;SDS011;14241;49.260;10.496;2023-04-10T06:50:02;20.15;;;16.63;;
26600;SDS011;14241;49.260;10.496;2023-04-10T06:52:27;18.08;;;15.38;;
26600;SDS011;14241;49.260;10.496;2023-04-10T06:54:52;19.50;;;15.75;;
26600;SDS011;14241;49.260;10.496;2023-04-10T06:57:18;20.10;;;16.00;;
26600;SDS011;14241;49.260;10.496;2023-04-10T06:59:43;17.77;;;14.60;;
26600;SDS011;14241;49.260;10.496;2023-04-10T07:02:09;19.33;;;15.07;;
26600;SDS011;14241;49.260;10.496;2023-04-10T07:04:34;18.52;;;14.50;;
26600;SDS011;14241;49.260;10.496;2023-04-10T07:07:00;17.20;;;14.75;;
26600;SDS011;14241;49.260;10.496;2023-04-10T07:09:26;17.58;;;15.20;;
26600;SDS011;14241;49.260;10.496;2023-04-10T07:11:52;17.58;;;15.30;;
26600;SDS011;14241;49.260;10.496;2023-04-10T07:14:17;18.42;;;14.85;;
26600;SDS011;14241;49.260;10.496;2023-04-10T07:16:42;19.23;;;14.75;;
26600;SDS011;14241;49.260;10.496;2023-04-10T07:19:08;18.42;;;14.93;;
26600;SDS011;14241;49.260;10.496;2023-04-10T07:21:33;15.85;;;13.90;;
26600;SDS011;14241;49.260;10.496;2023-04-10T07:23:58;18.10;;;14.70;;
26600;SDS011;14241;49.260;10.496;2023-04-10T07:26:23;18.52;;;14.07;;
26600;SDS011;14241;49.260;10.496;2023-04-10T07:28:49;17.13;;;14.13;;
26600;SDS011;14241;49.260;10.496;2023-04-10T07:31:15;16.55;;;13.35;;
26600;SDS011;14241;49.260;10.496;2023-04-10T07:33:42;15.88;;;12.55;;
26600;SDS011;14241;49.260;10.496;2023-04-10T07:36:07;16.08;;;13.30;;
26600;SDS011;14241;49.260;10.496;2023-04-10T07:38:32;16.52;;;12.90;;
26600;SDS011;14241;49.260;10.496;2023-04-10T07:40:58;16.52;;;13.70;;
26600;SDS011;14241;49.260;10.496;2023-04-10T07:43:23;14.93;;;13.15;;
26600;SDS011;14241;49.260;10.496;2023-04-10T07:45:49;17.33;;;12.93;;
26600;SDS011;14241;49.260;10.496;2023-04-10T07:48:14;15.15;;;12.95;;
26600;SDS011;14241;49.260;10.496;2023-04-10T07:50:40;14.40;;;12.80;;
26600;SDS011;14241;49.260;10.496;2023-04-10T07:53:05;16.42;;;13.10;;
26600;SDS011;14241;49.260;10.496;2023-04-10T07:55:38;14.65;;;12.30;;
26600;SDS011;14241;49.260;10.496;2023-04-10T07:58:03;15.68;;;12.40;;
26600;SDS011;14241;49.260;10.496;2023-04-10T08:00:29;15.00;;;12.15;;
26600;SDS011;14241;49.260;10.496;2023-04-10T08:02:55;17.10;;;13.77;;
26600;SDS011;14241;49.260;10.496;2023-04-10T08:05:20;15.43;;;12.60;;
26600;SDS011;14241;49.260;10.496;2023-04-10T08:07:46;15.05;;;13.10;;
26600;SDS011;14241;49.260;10.496;2023-04-10T08:10:11;14.50;;;12.38;;
26600;SDS011;14241;49.260;10.496;2023-04-10T08:12:36;16.98;;;13.38;;
26600;SDS011;14241;49.260;10.496;2023-04-10T08:15:01;15.85;;;12.98;;
26600;SDS011;14241;49.260;10.496;2023-04-10T08:17:27;14.95;;;12.43;;
26600;SDS011;14241;49.260;10.496;2023-04-10T08:19:52;13.07;;;11.68;;
26600;SDS011;14241;49.260;10.496;2023-04-10T08:22:17;16.20;;;13.32;;
26600;SDS011;14241;49.260;10.496;2023-04-10T08:24:42;12.90;;;11.47;;
26600;SDS011;14241;49.260;10.496;2023-04-10T08:27:08;14.30;;;12.20;;
26600;SDS011;14241;49.260;10.496;2023-04-10T08:29:33;15.32;;;12.20;;
26600;SDS011;14241;49.260;10.496;2023-04-10T08:31:59;13.18;;;11.40;;
26600;SDS011;14241;49.260;10.496;2023-04-10T08:34:25;15.25;;;12.18;;
26600;SDS011;14241;49.260;10.496;2023-04-10T08:36:50;15.30;;;12.05;;
26600;SDS011;14241;49.260;10.496;2023-04-10T08:39:16;12.90;;;10.35;;
26600;SDS011;14241;49.260;10.496;2023-04-10T08:41:42;17.38;;;11.52;;
26600;SDS011;14241;49.260;10.496;2023-04-10T08:44:07;14.27;;;12.23;;
26600;SDS011;14241;49.260;10.496;2023-04-10T08:46:33;13.07;;;11.50;;
26600;SDS011;14241;49.260;10.496;2023-04-10T08:49:03;13.73;;;11.52;;
26600;SDS011;14241;49.260;10.496;2023-04-10T08:51:38;13.25;;;11.25;;
26600;SDS011;14241;49.260;10.496;2023-04-10T08:54:07;12.73;;;11.20;;
26600;SDS011;14241;49.260;10.496;2023-04-10T08:56:34;12.27;;;10.80;;
26600;SDS011;14241;49.260;10.496;2023-04-10T08:59:03;13.55;;;11.00;;
26600;SDS011;14241;49.260;10.496;2023-04-10T09:01:28;12.63;;;10.98;;
26600;SDS011;14241;49.260;10.496;2023-04-10T09:03:55;13.52;;;10.85;;
26600;SDS011;14241;49.260;10.496;2023-04-10T09:06:20;14.40;;;11.10;;
26600;SDS011;14241;49.260;10.496;2023-04-10T09:08:45;11.48;;;9.77;;
26600;SDS011;14241;49.260;10.496;2023-04-10T09:11:11;11.95;;;10.52;;
26600;SDS011;14241;49.260;10.496;2023-04-10T09:13:38;12.18;;;10.77;;
26600;SDS011;14241;49.260;10.496;2023-04-10T09:16:03;12.15;;;10.55;;
26600;SDS011;14241;49.260;10.496;2023-04-10T09:18:48;11.00;;;9.82;;
26600;SDS011;14241;49.260;10.496;2023-04-10T09:21:20;11.60;;;10.40;;
26600;SDS011;14241;49.260;10.496;2023-04-10T09:23:46;10.90;;;9.77;;
26600;SDS011;14241;49.260;10.496;2023-04-10T09:31:27;10.43;;;9.30;;
26600;SDS011;14241;49.260;10.496;2023-04-10T09:34:05;9.80;;;8.63;;
26600;SDS011;14241;49.260;10.496;2023-04-10T09:36:30;10.55;;;9.40;;
26600;SDS011;14241;49.260;10.496;2023-04-10T09:38:56;10.13;;;8.63;;
26600;SDS011;14241;49.260;10.496;2023-04-10T09:41:22;9.65;;;8.63;;
26600;SDS011;14241;49.260;10.496;2023-04-10T09:43:47;9.57;;;8.23;;
26600;SDS011;14241;49.260;10.496;2023-04-10T09:46:13;10.15;;;8.70;;
26600;SDS011;14241;49.260;10.496;2023-04-10T09:48:55;12.40;;;8.77;;
26600;SDS011;14241;49.260;10.496;2023-04-10T09:51:27;9.00;;;7.88;;
26600;SDS011;14241;49.260;10.496;2023-04-10T09:53:54;9.02;;;7.63;;
26600;SDS011;14241;49.260;10.496;2023-04-10T09:56:20;9.48;;;6.80;;
26600;SDS011;14241;49.260;10.496;2023-04-10T09:58:45;8.45;;;7.43;;
26600;SDS011;14241;49.260;10.496;2023-04-10T10:01:11;8.73;;;7.00;;
26600;SDS011;14241;49.260;10.496;2023-04-10T10:03:37;14.32;;;9.25;;
26600;SDS011;14241;49.260;10.496;2023-04-10T10:06:02;7.57;;;6.70;;
26600;SDS011;14241;49.260;10.496;2023-04-10T10:08:28;9.52;;;6.65;;
26600;SDS011;14241;49.260;10.496;2023-04-10T10:10:56;7.75;;;6.78;;
26600;SDS011;14241;49.260;10.496;2023-04-10T10:13:23;7.43;;;6.63;;
26600;SDS011;14241;49.260;10.496;2023-04-10T10:18:30;8.23;;;7.20;;
26600;SDS011;14241;49.260;10.496;2023-04-10T10:23:21;8.57;;;7.18;;
26600;SDS011;14241;49.260;10.496;2023-04-10T10:25:47;8.02;;;7.05;;
26600;SDS011;14241;49.260;10.496;2023-04-10T10:28:13;8.30;;;7.25;;
26600;SDS011;14241;49.260;10.496;2023-04-10T10:30:38;7.90;;;6.78;;
26600;SDS011;14241;49.260;10.496;2023-04-10T10:33:05;7.63;;;6.47;;
26600;SDS011;14241;49.260;10.496;2023-04-10T10:35:31;10.63;;;7.50;;
26600;SDS011;14241;49.260;10.496;2023-04-10T10:37:58;10.02;;;7.38;;
26600;SDS011;14241;49.260;10.496;2023-04-10T10:40:37;9.13;;;7.55;;
26600;SDS011;14241;49.260;10.496;2023-04-10T10:45:32;7.80;;;6.63;;
26600;SDS011;14241;49.260;10.496;2023-04-10T10:47:58;8.65;;;6.90;;
26600;SDS011;14241;49.260;10.496;2023-04-10T10:50:24;6.82;;;6.15;;
26600;SDS011;14241;49.260;10.496;2023-04-10T10:52:50;7.40;;;6.38;;
26600;SDS011;14241;49.260;10.496;2023-04-10T10:58:07;8.32;;;6.82;;
26600;SDS011;14241;49.260;10.496;2023-04-10T11:08:12;8.68;;;6.07;;
26600;SDS011;14241;49.260;10.496;2023-04-10T11:10:59;7.70;;;5.50;;
26600;SDS011;14241;49.260;10.496;2023-04-10T11:13:23;6.70;;;5.22;;
26600;SDS011;14241;49.260;10.496;2023-04-10T11:15:50;7.18;;;5.57;;
26600;SDS011;14241;49.260;10.496;2023-04-10T11:18:15;6.43;;;5.70;;
26600;SDS011;14241;49.260;10.496;2023-04-10T11:21:27;6.95;;;5.50;;
26600;SDS011;14241;49.260;10.496;2023-04-10T11:23:26;6.78;;;5.60;;
26600;SDS011;14241;49.260;10.496;2023-04-10T11:25:53;6.80;;;5.63;;
26600;SDS011;14241;49.260;10.496;2023-04-10T11:33:42;7.72;;;5.35;;
26600;SDS011;14241;49.260;10.496;2023-04-10T11:36:08;6.45;;;5.38;;
26600;SDS011;14241;49.260;10.496;2023-04-10T11:38:33;7.10;;;5.55;;
26600;SDS011;14241;49.260;10.496;2023-04-10T11:41:00;6.65;;;5.10;;
26600;SDS011;14241;49.260;10.496;2023-04-10T11:43:26;7.28;;;4.95;;
26600;SDS011;14241;49.260;10.496;2023-04-10T11:46:01;6.50;;;4.95;;
26600;SDS011;14241;49.260;10.496;2023-04-10T11:48:27;6.15;;;5.30;;
26600;SDS011;14241;49.260;10.496;2023-04-10T11:50:53;6.10;;;5.13;;
26600;SDS011;14241;49.260;10.496;2023-04-10T11:53:19;6.13;;;4.95;;
26600;SDS011;14241;49.260;10.496;2023-04-10T11:55:45;8.40;;;5.32;;
26600;SDS011;14241;49.260;10.496;2023-04-10T11:58:24;5.05;;;4.20;;
26600;SDS011;14241;49.260;10.496;2023-04-10T12:03:34;5.97;;;4.20;;
26600;SDS011;14241;49.260;10.496;2023-04-10T12:06:00;5.50;;;3.95;;
26600;SDS011;14241;49.260;10.496;2023-04-10T12:08:32;7.97;;;4.38;;
26600;SDS011;14241;49.260;10.496;2023-04-10T12:10:58;5.82;;;3.42;;
26600;SDS011;14241;49.260;10.496;2023-04-10T12:13:24;5.30;;;4.00;;
26600;SDS011;14241;49.260;10.496;2023-04-10T12:15:50;6.68;;;3.90;;
26600;SDS011;14241;49.260;10.496;2023-04-10T12:18:15;6.55;;;5.53;;
26600;SDS011;14241;49.260;10.496;2023-04-10T12:20:40;5.72;;;4.60;;
26600;SDS011;14241;49.260;10.496;2023-04-10T12:23:06;6.15;;;4.57;;
26600;SDS011;14241;49.260;10.496;2023-04-10T12:25:31;6.57;;;5.47;;
26600;SDS011;14241;49.260;10.496;2023-04-10T12:27:57;6.30;;;4.75;;
26600;SDS011;14241;49.260;10.496;2023-04-10T12:30:23;7.57;;;5.30;;
26600;SDS011;14241;49.260;10.496;2023-04-10T12:32:52;6.15;;;4.88;;
26600;SDS011;14241;49.260;10.496;2023-04-10T12:35:18;6.60;;;5.07;;
26600;SDS011;14241;49.260;10.496;2023-04-10T12:37:50;6.55;;;5.07;;
26600;SDS011;14241;49.260;10.496;2023-04-10T12:40:16;5.07;;;3.90;;
26600;SDS011;14241;49.260;10.496;2023-04-10T12:42:42;5.68;;;4.32;;
26600;SDS011;14241;49.260;10.496;2023-04-10T12:45:07;5.13;;;4.63;;
26600;SDS011;14241;49.260;10.496;2023-04-10T12:47:55;5.18;;;4.03;;
26600;SDS011;14241;49.260;10.496;2023-04-10T12:50:20;5.25;;;4.32;;
26600;SDS011;14241;49.260;10.496;2023-04-10T12:53:00;4.50;;;3.47;;
26600;SDS011;14241;49.260;10.496;2023-04-10T12:55:26;3.53;;;2.92;;
26600;SDS011;14241;49.260;10.496;2023-04-10T12:57:52;4.72;;;3.90;;
26600;SDS011;14241;49.260;10.496;2023-04-10T13:00:19;4.75;;;3.72;;
26600;SDS011;14241;49.260;10.496;2023-04-10T13:02:45;4.03;;;3.42;;
26600;SDS011;14241;49.260;10.496;2023-04-10T13:05:11;4.72;;;3.92;;
26600;SDS011;14241;49.260;10.496;2023-04-10T13:07:37;4.25;;;3.30;;
26600;SDS011;14241;49.260;10.496;2023-04-10T13:10:02;3.88;;;3.05;;
26600;SDS011;14241;49.260;10.496;2023-04-10T13:12:28;4.28;;;2.92;;
26600;SDS011;14241;49.260;10.496;2023-04-10T13:14:54;2.97;;;2.67;;
26600;SDS011;14241;49.260;10.496;2023-04-10T13:17:20;3.72;;;2.75;;
26600;SDS011;14241;49.260;10.496;2023-04-10T13:19:45;3.33;;;2.92;;
26600;SDS011;14241;49.260;10.496;2023-04-10T13:22:11;4.18;;;3.30;;
26600;SDS011;14241;49.260;10.496;2023-04-10T13:24:36;3.00;;;2.70;;
26600;SDS011;14241;49.260;10.496;2023-04-10T13:27:02;2.92;;;2.63;;
26600;SDS011;14241;49.260;10.496;2023-04-10T13:29:27;3.10;;;2.70;;
26600;SDS011;14241;49.260;10.496;2023-04-10T13:31:53;3.13;;;2.67;;
26600;SDS011;14241;49.260;10.496;2023-04-10T13:34:18;4.00;;;2.95;;
26600;SDS011;14241;49.260;10.496;2023-04-10T13:36:43;3.80;;;3.03;;
26600;SDS011;14241;49.260;10.496;2023-04-10T13:39:09;4.20;;;3.15;;
26600;SDS011;14241;49.260;10.496;2023-04-10T13:41:34;3.20;;;2.85;;
26600;SDS011;14241;49.260;10.496;2023-04-10T13:43:59;2.60;;;2.40;;
26600;SDS011;14241;49.260;10.496;2023-04-10T13:46:25;5.55;;;2.92;;
26600;SDS011;14241;49.260;10.496;2023-04-10T13:48:50;4.00;;;3.60;;
26600;SDS011;14241;49.260;10.496;2023-04-10T13:51:15;4.50;;;3.55;;
26600;SDS011;14241;49.260;10.496;2023-04-10T13:53:41;5.28;;;3.83;;
26600;SDS011;14241;49.260;10.496;2023-04-10T13:56:06;4.55;;;3.70;;
26600;SDS011;14241;49.260;10.496;2023-04-10T13:58:32;4.03;;;2.90;;
26600;SDS011;14241;49.260;10.496;2023-04-10T14:00:58;3.65;;;3.30;;
26600;SDS011;14241;49.260;10.496;2023-04-10T14:03:23;2.85;;;2.42;;
26600;SDS011;14241;49.260;10.496;2023-04-10T14:05:49;3.40;;;2.92;;
26600;SDS011;14241;49.260;10.496;2023-04-10T14:08:14;7.45;;;5.13;;
26600;SDS011;14241;49.260;10.496;2023-04-10T14:10:40;4.00;;;3.20;;
26600;SDS011;14241;49.260;10.496;2023-04-10T14:13:05;3.92;;;3.50;;
26600;SDS011;14241;49.260;10.496;2023-04-10T14:15:31;3.75;;;3.03;;
26600;SDS011;14241;49.260;10.496;2023-04-10T14:17:56;3.10;;;2.80;;
26600;SDS011;14241;49.260;10.496;2023-04-10T14:20:21;3.97;;;3.03;;
26600;SDS011;14241;49.260;10.496;2023-04-10T14:22:47;5.35;;;3.47;;
26600;SDS011;14241;49.260;10.496;2023-04-10T14:25:13;3.47;;;3.17;;
26600;SDS011;14241;49.260;10.496;2023-04-10T14:27:41;3.70;;;2.72;;
26600;SDS011;14241;49.260;10.496;2023-04-10T14:30:07;3.38;;;2.97;;
26600;SDS011;14241;49.260;10.496;2023-04-10T14:32:32;3.10;;;2.67;;
26600;SDS011;14241;49.260;10.496;2023-04-10T14:34:57;3.17;;;2.63;;
26600;SDS011;14241;49.260;10.496;2023-04-10T14:37:23;2.65;;;2.40;;
26600;SDS011;14241;49.260;10.496;2023-04-10T14:39:48;4.07;;;3.20;;
26600;SDS011;14241;49.260;10.496;2023-04-10T14:42:13;4.70;;;3.70;;
26600;SDS011;14241;49.260;10.496;2023-04-10T14:44:39;4.60;;;3.38;;
26600;SDS011;14241;49.260;10.496;2023-04-10T14:47:04;4.90;;;3.80;;
26600;SDS011;14241;49.260;10.496;2023-04-10T14:49:30;3.67;;;2.88;;
26600;SDS011;14241;49.260;10.496;2023-04-10T14:51:56;3.08;;;2.78;;
26600;SDS011;14241;49.260;10.496;2023-04-10T14:54:21;4.30;;;3.35;;
26600;SDS011;14241;49.260;10.496;2023-04-10T14:56:48;4.15;;;3.50;;